createdAt,value
2023-05-02T00:00:57.682Z,100.00
2023-05-02T00:03:25.816Z,100.00
2023-05-02T00:05:53.833Z,100.00
2023-05-02T00:08:21.830Z,100.00
2023-05-02T00:10:49.787Z,100.00
2023-05-02T00:13:17.735Z,100.00
2023-05-02T00:15:45.696Z,100.00
2023-05-02T00:18:13.743Z,100.00
2023-05-02T00:20:43.064Z,100.00
2023-05-02T00:23:11.787Z,100.00
2023-05-02T00:25:45.020Z,100.00
2023-05-02T00:28:13.043Z,100.00
2023-05-02T00:30:46.107Z,100.00
2023-05-02T00:33:15.692Z,100.00
2023-05-02T00:35:43.632Z,100.00
2023-05-02T00:38:11.822Z,100.00
2023-05-02T00:40:52.437Z,100.00
2023-05-02T00:43:20.621Z,100.00
2023-05-02T00:45:48.658Z,100.00
2023-05-02T00:48:16.798Z,100.00
2023-05-02T00:50:44.815Z,100.00
2023-05-02T00:53:12.776Z,100.00
2023-05-02T00:55:40.932Z,100.00
2023-05-02T00:58:11.435Z,100.00
2023-05-02T01:00:47.000Z,100.00
2023-05-02T01:03:38.101Z,100.00
2023-05-02T01:06:13.322Z,100.00
2023-05-02T01:08:45.884Z,100.00
2023-05-02T01:11:17.705Z,100.00
2023-05-02T01:13:46.939Z,100.00
2023-05-02T01:16:15.007Z,100.00
2023-05-02T01:18:43.846Z,100.00
2023-05-02T01:21:12.133Z,100.00
2023-05-02T01:23:47.161Z,100.00
2023-05-02T01:26:22.618Z,100.00
2023-05-02T01:29:07.346Z,100.00
2023-05-02T01:31:40.202Z,100.00
2023-05-02T01:34:11.356Z,100.00
2023-05-02T01:36:48.085Z,100.00
2023-05-02T01:39:19.863Z,100.00
2023-05-02T01:41:48.357Z,100.00
2023-05-02T01:44:16.326Z,100.00
2023-05-02T01:46:44.463Z,100.00
2023-05-02T01:49:12.547Z,100.00
2023-05-02T01:51:50.268Z,100.00
2023-05-02T01:54:18.740Z,100.00
2023-05-02T01:56:47.779Z,100.00
2023-05-02T01:59:20.947Z,100.00
2023-05-02T02:01:49.017Z,100.00
2023-05-02T02:04:17.690Z,100.00
2023-05-02T02:06:47.685Z,100.00
2023-05-02T02:09:16.029Z,100.00
2023-05-02T02:12:07.523Z,100.00
2023-05-02T02:14:36.856Z,100.00
2023-05-02T02:17:08.365Z,100.00
2023-05-02T02:19:36.414Z,100.00
2023-05-02T02:22:04.463Z,100.00
2023-05-02T02:24:32.347Z,100.00
2023-05-02T02:27:00.561Z,100.00
2023-05-02T02:29:28.596Z,100.00
2023-05-02T02:31:56.575Z,100.00
2023-05-02T02:34:24.560Z,100.00
2023-05-02T02:37:02.232Z,100.00
2023-05-02T02:39:52.897Z,100.00
2023-05-02T02:42:43.617Z,100.00
2023-05-02T02:45:37.850Z,100.00
2023-05-02T02:48:29.422Z,100.00
2023-05-02T02:51:03.313Z,100.00
2023-05-02T02:53:36.236Z,100.00
2023-05-02T02:56:07.445Z,100.00
2023-05-02T02:58:59.049Z,100.00
2023-05-02T03:01:27.686Z,100.00
2023-05-02T03:03:55.707Z,100.00
2023-05-02T03:06:23.726Z,100.00
2023-05-02T03:08:51.803Z,100.00
2023-05-02T03:11:19.721Z,100.00
2023-05-02T03:13:48.685Z,100.00
2023-05-02T03:16:38.625Z,100.00
2023-05-02T03:19:07.200Z,100.00
2023-05-02T03:21:35.391Z,100.00
2023-05-02T03:24:04.581Z,100.00
2023-05-02T03:26:32.546Z,100.00
2023-05-02T03:29:00.569Z,100.00
2023-05-02T03:31:28.603Z,100.00
2023-05-02T03:33:56.631Z,100.00
2023-05-02T03:36:24.636Z,100.00
2023-05-02T03:38:52.665Z,100.00
2023-05-02T03:41:22.245Z,100.00
2023-05-02T03:43:50.343Z,100.00
2023-05-02T03:46:18.360Z,100.00
2023-05-02T03:48:47.843Z,100.00
2023-05-02T03:51:15.780Z,100.00
2023-05-02T03:53:43.815Z,100.00
2023-05-02T03:56:11.732Z,100.00
2023-05-02T03:58:39.758Z,100.00
2023-05-02T04:01:15.328Z,100.00
2023-05-02T04:03:44.374Z,100.00
2023-05-02T04:06:12.636Z,100.00
2023-05-02T04:08:40.853Z,100.00
2023-05-02T04:11:09.024Z,100.00
2023-05-02T04:13:36.945Z,100.00
2023-05-02T04:16:05.969Z,100.00
2023-05-02T04:18:34.051Z,100.00
2023-05-02T04:21:02.125Z,100.00
2023-05-02T04:23:30.128Z,100.00
2023-05-02T04:25:58.020Z,100.00
2023-05-02T04:28:26.051Z,100.00
2023-05-02T04:30:54.077Z,100.00
2023-05-02T04:33:22.137Z,100.00
2023-05-02T04:35:50.151Z,100.00
2023-05-02T04:38:18.997Z,100.00
2023-05-02T04:40:47.292Z,100.00
2023-05-02T04:43:15.278Z,100.00
2023-05-02T04:45:43.210Z,100.00
2023-05-02T04:48:11.242Z,100.00
2023-05-02T04:50:39.308Z,100.00
2023-05-02T04:53:07.342Z,100.00
2023-05-02T04:55:35.364Z,100.00
2023-05-02T04:58:03.308Z,100.00
2023-05-02T05:00:31.369Z,100.00
2023-05-02T05:03:00.934Z,100.00
2023-05-02T05:05:29.943Z,100.00
2023-05-02T05:07:57.981Z,100.00
2023-05-02T05:10:25.998Z,100.00
2023-05-02T05:12:54.870Z,100.00
2023-05-02T05:15:25.327Z,100.00
2023-05-02T05:17:53.494Z,100.00
2023-05-02T05:20:21.551Z,100.00
2023-05-02T05:22:49.530Z,100.00
2023-05-02T05:25:17.626Z,100.00
2023-05-02T05:27:45.717Z,100.00
2023-05-02T05:30:13.761Z,100.00
2023-05-02T05:32:41.755Z,100.00
2023-05-02T05:35:10.121Z,100.00
2023-05-02T05:37:40.747Z,100.00
2023-05-02T05:40:12.060Z,100.00
2023-05-02T05:42:40.054Z,100.00
2023-05-02T05:45:09.058Z,100.00
2023-05-02T05:47:37.570Z,100.00
2023-05-02T05:50:06.301Z,100.00
2023-05-02T05:52:34.406Z,100.00
2023-05-02T05:55:02.370Z,100.00
2023-05-02T05:57:30.341Z,100.00
2023-05-02T05:59:58.613Z,100.00
2023-05-02T06:02:26.779Z,100.00
2023-05-02T06:04:54.914Z,100.00
2023-05-02T06:07:22.872Z,100.00
2023-05-02T06:09:50.906Z,100.00
2023-05-02T06:12:18.970Z,100.00
2023-05-02T06:14:47.018Z,100.00
2023-05-02T06:17:15.132Z,100.00
2023-05-02T06:19:43.098Z,100.00
2023-05-02T06:22:13.717Z,100.00
2023-05-02T06:24:41.871Z,100.00
2023-05-02T06:27:09.790Z,100.00
2023-05-02T06:29:38.088Z,100.00
2023-05-02T06:32:06.610Z,100.00
2023-05-02T06:34:35.298Z,100.00
2023-05-02T06:37:03.308Z,100.00
2023-05-02T06:39:31.374Z,100.00
2023-05-02T06:41:59.807Z,100.00
2023-05-02T06:44:27.824Z,100.00
2023-05-02T06:46:57.153Z,100.00
2023-05-02T06:49:25.151Z,100.00
2023-05-02T06:51:53.069Z,100.00
2023-05-02T06:54:21.395Z,100.00
2023-05-02T06:56:49.484Z,100.00
2023-05-02T06:59:20.442Z,100.00
2023-05-02T07:01:48.366Z,100.00
2023-05-02T07:04:16.321Z,100.00
2023-05-02T07:06:44.399Z,100.00
2023-05-02T07:09:12.464Z,100.00
2023-05-02T07:11:40.402Z,100.00
2023-05-02T07:14:08.682Z,100.00
2023-05-02T07:16:36.903Z,100.00
2023-05-02T07:19:07.937Z,100.00
2023-05-02T07:21:35.918Z,100.00
2023-05-02T07:24:03.941Z,100.00
2023-05-02T07:26:31.979Z,100.00
2023-05-02T07:28:59.894Z,100.00
2023-05-02T07:31:27.861Z,100.00
2023-05-02T07:33:56.135Z,100.00
2023-05-02T07:36:24.297Z,100.00
2023-05-02T07:38:52.476Z,100.00
2023-05-02T07:41:20.449Z,100.00
2023-05-02T07:43:48.535Z,100.00
2023-05-02T07:46:16.668Z,100.00
2023-05-02T07:48:44.700Z,100.00
2023-05-02T07:51:12.794Z,100.00
2023-05-02T07:53:40.741Z,100.00
2023-05-02T07:56:09.710Z,100.00
2023-05-02T07:58:38.572Z,100.00
2023-05-02T08:01:06.684Z,100.00
2023-05-02T08:03:34.968Z,100.00
2023-05-02T08:06:03.601Z,100.00
2023-05-02T08:08:31.663Z,100.00
2023-05-02T08:10:59.654Z,100.00
2023-05-02T08:13:28.475Z,100.00
2023-05-02T08:15:59.754Z,100.00
2023-05-02T08:18:27.835Z,100.00
2023-05-02T08:20:57.694Z,100.00
2023-05-02T08:23:25.969Z,100.00
2023-05-02T08:25:54.012Z,100.00
2023-05-02T08:28:22.106Z,100.00
2023-05-02T08:30:50.505Z,100.00
2023-05-02T08:33:18.735Z,100.00
2023-05-02T08:35:46.762Z,100.00
2023-05-02T08:38:14.811Z,100.00
2023-05-02T08:40:43.402Z,100.00
2023-05-02T08:43:13.077Z,100.00
2023-05-02T08:45:43.341Z,100.00
2023-05-02T08:48:13.796Z,100.00
2023-05-02T08:50:43.886Z,100.00
2023-05-02T08:53:12.589Z,100.00
2023-05-02T08:55:41.365Z,100.00
2023-05-02T08:58:10.244Z,100.00
2023-05-02T09:00:42.586Z,100.00
2023-05-02T09:03:23.994Z,100.00
2023-05-02T09:05:56.549Z,100.00
2023-05-02T09:08:25.486Z,100.00
2023-05-02T09:10:53.572Z,100.00
2023-05-02T09:13:42.599Z,100.00
2023-05-02T09:16:12.002Z,100.00
2023-05-02T09:18:41.599Z,100.00
2023-05-02T09:21:12.526Z,100.00
2023-05-02T09:23:51.133Z,100.00
2023-05-02T09:26:20.786Z,100.00
2023-05-02T09:28:57.865Z,100.00
2023-05-02T09:34:13.404Z,100.00
2023-05-02T09:36:42.533Z,100.00
2023-05-02T09:39:15.420Z,100.00
2023-05-02T09:41:44.318Z,100.00
2023-05-02T09:44:22.806Z,100.00
2023-05-02T09:46:55.312Z,100.00
2023-05-02T09:49:55.756Z,100.00
2023-05-02T09:52:23.759Z,100.00
2023-05-02T09:54:54.769Z,100.00
2023-05-02T09:57:23.224Z,100.00
2023-05-02T09:59:58.449Z,100.00
2023-05-02T10:02:27.059Z,100.00
2023-05-02T10:04:55.336Z,100.00
2023-05-02T10:07:23.487Z,100.00
2023-05-02T10:09:51.451Z,100.00
2023-05-02T10:12:19.531Z,100.00
2023-05-02T10:14:52.116Z,100.00
2023-05-02T10:17:23.746Z,100.00
2023-05-02T10:20:00.775Z,100.00
2023-05-02T10:22:28.818Z,100.00
2023-05-02T10:24:57.452Z,100.00
2023-05-02T10:27:25.513Z,100.00
2023-05-02T10:29:54.118Z,100.00
2023-05-02T10:32:23.224Z,100.00
2023-05-02T10:34:51.740Z,100.00
2023-05-02T10:37:19.884Z,100.00
2023-05-02T10:39:47.902Z,100.00
2023-05-02T10:42:15.954Z,100.00
2023-05-02T10:44:43.927Z,98.50
2023-05-02T10:47:21.683Z,96.70
2023-05-02T10:50:02.598Z,92.35
2023-05-02T10:52:34.637Z,95.02
2023-05-02T10:55:14.772Z,98.17
2023-05-02T10:58:01.128Z,92.48
2023-05-02T11:00:31.063Z,92.36
2023-05-02T11:02:59.341Z,94.05
2023-05-02T11:05:28.067Z,92.27
2023-05-02T11:08:35.074Z,90.22
2023-05-02T11:11:40.223Z,88.53
2023-05-02T11:14:08.373Z,83.20
2023-05-02T11:17:01.439Z,83.53
2023-05-02T11:19:31.540Z,73.24
2023-05-02T11:22:30.836Z,75.14
2023-05-02T11:24:59.191Z,70.88
2023-05-02T11:27:34.777Z,71.78
2023-05-02T11:30:10.798Z,71.20
2023-05-02T11:32:45.353Z,70.47
2023-05-02T11:35:19.872Z,70.15
2023-05-02T11:38:01.714Z,68.74
2023-05-02T11:40:29.952Z,64.84
2023-05-02T11:42:58.928Z,66.48
2023-05-02T11:45:40.552Z,67.97
2023-05-02T11:48:08.840Z,64.73
2023-05-02T11:50:49.616Z,65.02
2023-05-02T11:53:25.589Z,64.39
2023-05-02T11:55:55.270Z,65.61
2023-05-02T11:58:24.817Z,64.17
2023-05-02T12:00:53.799Z,63.86
2023-05-02T12:03:32.117Z,65.02
2023-05-02T12:06:13.867Z,63.34
2023-05-02T12:08:45.026Z,63.02
2023-05-02T12:11:17.562Z,65.11
2023-05-02T12:13:50.271Z,64.21
2023-05-02T12:16:19.091Z,65.82
2023-05-02T12:18:47.109Z,68.35
2023-05-02T12:21:15.373Z,68.47
2023-05-02T12:23:43.834Z,69.35
2023-05-02T12:26:26.636Z,70.52
2023-05-02T12:28:58.588Z,70.19
2023-05-02T12:31:27.153Z,74.21
2023-05-02T12:33:58.767Z,71.93
2023-05-02T12:36:27.222Z,73.05
2023-05-02T12:38:58.372Z,74.53
2023-05-02T12:41:33.337Z,75.70
2023-05-02T12:44:02.355Z,76.76
2023-05-02T12:46:31.043Z,80.34
2023-05-02T12:49:06.914Z,81.68
2023-05-02T12:51:35.762Z,82.86
2023-05-02T12:56:36.107Z,85.29
2023-05-02T12:59:06.703Z,85.58
2023-05-02T13:01:35.710Z,85.37
2023-05-02T13:04:04.787Z,84.63
2023-05-02T13:06:32.942Z,81.74
2023-05-02T13:09:01.449Z,79.28
2023-05-02T13:11:29.657Z,77.87
2023-05-02T13:13:57.925Z,76.53
2023-05-02T13:16:27.335Z,74.54
2023-05-02T13:18:55.450Z,73.10
2023-05-02T13:21:23.575Z,70.90
2023-05-02T13:23:56.461Z,73.92
2023-05-02T13:26:24.598Z,75.29
2023-05-02T13:28:52.652Z,72.23
2023-05-02T13:31:20.665Z,75.20
2023-05-02T13:33:48.788Z,71.65
2023-05-02T13:36:16.874Z,69.90
2023-05-02T13:38:44.880Z,66.62
2023-05-02T13:41:12.892Z,66.49
2023-05-02T13:43:42.080Z,65.22
2023-05-02T13:46:10.675Z,67.30
2023-05-02T13:48:38.809Z,64.03
2023-05-02T13:51:06.829Z,65.64
2023-05-02T13:53:34.856Z,65.31
2023-05-02T13:56:03.085Z,63.31
2023-05-02T13:58:31.004Z,61.89
2023-05-02T14:00:59.268Z,59.42
2023-05-02T14:03:27.579Z,62.74
2023-05-02T14:05:55.798Z,62.46
2023-05-02T14:08:23.798Z,60.31
2023-05-02T14:10:51.915Z,61.68
2023-05-02T14:13:19.892Z,63.47
2023-05-02T14:15:47.895Z,65.62
2023-05-02T14:18:17.625Z,64.50
2023-05-02T14:20:45.781Z,64.18
2023-05-02T14:23:13.966Z,65.40
2023-05-02T14:25:41.974Z,65.60
2023-05-02T14:28:10.042Z,65.43
2023-05-02T14:30:38.081Z,64.64
2023-05-02T14:33:06.077Z,65.71
2023-05-02T14:35:34.001Z,65.44
2023-05-02T14:38:02.382Z,66.60
2023-05-02T14:40:30.293Z,66.66
2023-05-02T14:42:58.207Z,66.19
2023-05-02T14:45:26.229Z,64.04
2023-05-02T14:47:54.276Z,64.55
2023-05-02T14:50:22.186Z,66.73
2023-05-02T14:52:50.096Z,68.49
2023-05-02T14:55:18.283Z,70.00
2023-05-02T14:57:46.273Z,70.14
2023-05-02T15:00:14.846Z,70.08
2023-05-02T15:02:43.122Z,71.27
2023-05-02T15:05:13.517Z,71.69
2023-05-02T15:07:41.637Z,71.58
2023-05-02T15:10:10.049Z,67.83
2023-05-02T15:12:38.439Z,67.11
2023-05-02T15:15:07.017Z,64.48
2023-05-02T15:17:34.991Z,62.44
2023-05-02T15:20:03.414Z,64.27
2023-05-02T15:22:31.628Z,64.88
2023-05-02T15:24:59.625Z,65.81
2023-05-02T15:27:27.753Z,66.26
2023-05-02T15:29:55.737Z,66.57
2023-05-02T15:32:24.166Z,69.22
2023-05-02T15:34:52.231Z,70.00
2023-05-02T15:37:20.246Z,70.31
2023-05-02T15:39:48.448Z,70.95
2023-05-02T15:42:16.406Z,71.55
2023-05-02T15:44:44.379Z,71.72
2023-05-02T15:47:12.318Z,71.62
2023-05-02T15:49:40.811Z,71.93
2023-05-02T15:52:08.770Z,70.75
2023-05-02T15:54:36.900Z,69.48
2023-05-02T15:57:04.929Z,69.27
2023-05-02T15:59:32.930Z,67.75
2023-05-02T16:02:00.920Z,67.88
2023-05-02T16:04:30.178Z,68.66
2023-05-02T16:06:58.296Z,69.70
2023-05-02T16:09:26.417Z,71.15
2023-05-02T16:11:54.448Z,71.98
2023-05-02T16:14:25.258Z,73.49
2023-05-02T16:16:53.351Z,74.02
2023-05-02T16:19:21.327Z,74.77
2023-05-02T16:21:49.288Z,74.79
2023-05-02T16:24:17.286Z,73.80
2023-05-02T16:26:45.396Z,74.75
2023-05-02T16:29:13.386Z,72.24
2023-05-02T16:31:42.969Z,74.96
2023-05-02T16:34:12.569Z,73.79
2023-05-02T16:36:40.490Z,74.93
2023-05-02T16:39:08.445Z,72.99
2023-05-02T16:41:37.564Z,73.52
2023-05-02T16:44:05.614Z,72.85
2023-05-02T16:46:34.122Z,74.89
2023-05-02T16:49:02.156Z,73.25
2023-05-02T16:51:32.620Z,74.80
2023-05-02T16:54:00.552Z,76.17
2023-05-02T16:56:28.683Z,78.18
2023-05-02T16:58:57.031Z,78.17
2023-05-02T17:01:25.153Z,78.89
2023-05-02T17:03:53.356Z,78.57
2023-05-02T17:06:21.519Z,78.26
2023-05-02T17:08:49.613Z,78.25
2023-05-02T17:11:18.837Z,79.31
2023-05-02T17:13:48.558Z,81.68
2023-05-02T17:16:19.319Z,80.30
2023-05-02T17:18:47.769Z,80.85
2023-05-02T17:21:16.389Z,79.74
2023-05-02T17:23:44.346Z,81.51
2023-05-02T17:26:18.275Z,79.58
2023-05-02T17:28:47.223Z,81.71
2023-05-02T17:31:15.382Z,83.59
2023-05-02T17:33:43.610Z,84.57
2023-05-02T17:36:11.933Z,85.51
2023-05-02T17:38:39.982Z,85.67
2023-05-02T17:41:07.936Z,86.68
2023-05-02T17:43:35.979Z,84.38
2023-05-02T17:46:09.610Z,84.33
2023-05-02T17:48:38.460Z,86.64
2023-05-02T17:51:07.002Z,86.05
2023-05-02T17:53:36.857Z,84.99
2023-05-02T17:56:05.427Z,85.93
2023-05-02T17:58:34.036Z,87.50
2023-05-02T18:01:09.397Z,89.27
2023-05-02T18:03:38.026Z,91.41
2023-05-02T18:06:06.263Z,91.28
2023-05-02T18:08:34.333Z,92.25
2023-05-02T18:11:03.563Z,95.85
2023-05-02T18:13:32.086Z,98.77
2023-05-02T18:16:00.680Z,100.00
2023-05-02T18:18:28.802Z,100.00
2023-05-02T18:20:57.159Z,100.00
2023-05-02T18:23:25.456Z,100.00
2023-05-02T18:25:53.414Z,100.00
2023-05-02T18:28:21.362Z,100.00
2023-05-02T18:30:49.498Z,100.00
2023-05-02T18:33:17.618Z,100.00
2023-05-02T18:35:49.522Z,100.00
2023-05-02T18:38:17.562Z,100.00
2023-05-02T18:40:45.601Z,100.00
2023-05-02T18:43:13.635Z,100.00
2023-05-02T18:45:41.870Z,100.00
2023-05-02T18:48:10.464Z,100.00
2023-05-02T18:50:38.584Z,100.00
2023-05-02T18:53:06.733Z,100.00
2023-05-02T18:55:34.837Z,100.00
2023-05-02T18:58:02.943Z,100.00
2023-05-02T19:00:34.359Z,100.00
2023-05-02T19:03:04.244Z,100.00
2023-05-02T19:05:32.226Z,100.00
2023-05-02T19:08:00.283Z,100.00
2023-05-02T19:10:28.371Z,100.00
2023-05-02T19:12:56.422Z,100.00
2023-05-02T19:15:27.927Z,100.00
2023-05-02T19:17:56.329Z,100.00
2023-05-02T19:20:24.353Z,100.00
2023-05-02T19:22:57.754Z,100.00
2023-05-02T19:25:31.212Z,100.00
2023-05-02T19:27:59.218Z,100.00
2023-05-02T19:30:27.344Z,100.00
2023-05-02T19:32:55.404Z,100.00
2023-05-02T19:35:23.536Z,100.00
2023-05-02T19:37:51.617Z,100.00
2023-05-02T19:40:19.577Z,100.00
2023-05-02T19:42:47.593Z,100.00
2023-05-02T19:45:15.618Z,100.00
2023-05-02T19:47:45.532Z,100.00
2023-05-02T19:50:13.694Z,100.00
2023-05-02T19:52:42.939Z,100.00
2023-05-02T19:55:11.228Z,100.00
2023-05-02T19:57:39.276Z,100.00
2023-05-02T20:00:07.852Z,100.00
2023-05-02T20:02:35.950Z,100.00
2023-05-02T20:05:04.067Z,100.00
2023-05-02T20:07:32.067Z,100.00
2023-05-02T20:10:00.903Z,100.00
2023-05-02T20:12:29.118Z,100.00
2023-05-02T20:14:57.190Z,100.00
2023-05-02T20:17:25.258Z,100.00
2023-05-02T20:19:53.387Z,100.00
2023-05-02T20:22:21.373Z,100.00
2023-05-02T20:24:49.425Z,100.00
2023-05-02T20:27:17.886Z,100.00
2023-05-02T20:29:45.985Z,100.00
2023-05-02T20:32:14.045Z,100.00
2023-05-02T20:34:42.108Z,100.00
2023-05-02T20:37:11.508Z,100.00
2023-05-02T20:39:39.480Z,100.00
2023-05-02T20:42:07.539Z,100.00
2023-05-02T20:44:35.506Z,100.00
2023-05-02T20:47:04.966Z,100.00
2023-05-02T20:49:33.704Z,100.00
2023-05-02T20:52:06.264Z,100.00
2023-05-02T20:54:34.419Z,100.00
2023-05-02T20:57:03.947Z,100.00
2023-05-02T20:59:31.978Z,100.00
2023-05-02T21:02:00.233Z,100.00
2023-05-02T21:04:28.297Z,100.00
2023-05-02T21:06:58.111Z,100.00
2023-05-02T21:09:26.210Z,100.00
2023-05-02T21:11:54.340Z,100.00
2023-05-02T21:14:24.933Z,100.00
2023-05-02T21:16:53.976Z,100.00
2023-05-02T21:19:22.025Z,100.00
2023-05-02T21:21:50.016Z,100.00
2023-05-02T21:24:17.985Z,100.00
2023-05-02T21:26:45.954Z,100.00
2023-05-02T21:29:15.102Z,100.00
2023-05-02T21:31:43.112Z,100.00
2023-05-02T21:34:11.068Z,100.00
2023-05-02T21:36:39.187Z,100.00
2023-05-02T21:39:07.595Z,100.00
2023-05-02T21:41:36.233Z,100.00
2023-05-02T21:44:04.207Z,100.00
2023-05-02T21:46:32.563Z,100.00
2023-05-02T21:49:00.522Z,100.00
2023-05-02T21:51:28.432Z,100.00
2023-05-02T21:53:56.427Z,100.00
2023-05-02T21:56:24.625Z,100.00
2023-05-02T21:58:52.670Z,100.00
2023-05-02T22:01:20.750Z,100.00
2023-05-02T22:03:48.797Z,100.00
2023-05-02T22:06:17.597Z,100.00
2023-05-02T22:08:45.980Z,100.00
2023-05-02T22:11:13.918Z,100.00
2023-05-02T22:13:41.958Z,100.00
2023-05-02T22:16:10.096Z,100.00
2023-05-02T22:18:38.956Z,100.00
2023-05-02T22:21:09.368Z,100.00
2023-05-02T22:23:37.406Z,100.00
2023-05-02T22:26:05.744Z,100.00
2023-05-02T22:28:33.812Z,100.00
2023-05-02T22:31:01.819Z,100.00
2023-05-02T22:33:29.943Z,100.00
2023-05-02T22:35:58.242Z,100.00
2023-05-02T22:38:26.184Z,100.00
2023-05-02T22:40:54.204Z,100.00
2023-05-02T22:43:22.167Z,100.00
2023-05-02T22:45:52.526Z,100.00
2023-05-02T22:48:20.507Z,100.00
2023-05-02T22:50:49.929Z,100.00
2023-05-02T22:53:17.949Z,100.00
2023-05-02T22:55:45.917Z,100.00
2023-05-02T22:58:13.849Z,100.00
2023-05-02T23:00:41.800Z,100.00
2023-05-02T23:03:10.041Z,100.00
2023-05-02T23:05:38.108Z,100.00
2023-05-02T23:08:06.437Z,100.00
2023-05-02T23:10:34.441Z,100.00
2023-05-02T23:13:02.460Z,100.00
2023-05-02T23:15:30.418Z,100.00
2023-05-02T23:17:58.422Z,100.00
2023-05-02T23:20:26.495Z,100.00
2023-05-02T23:22:54.502Z,100.00
2023-05-02T23:25:22.523Z,100.00
2023-05-02T23:27:50.495Z,100.00
2023-05-02T23:30:18.477Z,100.00
2023-05-02T23:32:47.122Z,100.00
2023-05-02T23:35:15.196Z,100.00
2023-05-02T23:37:43.120Z,100.00
2023-05-02T23:40:11.352Z,100.00
2023-05-02T23:42:41.348Z,100.00
2023-05-02T23:45:10.126Z,100.00
2023-05-02T23:47:39.164Z,100.00
2023-05-02T23:50:07.611Z,100.00
2023-05-02T23:52:35.574Z,100.00
2023-05-02T23:55:03.684Z,100.00
2023-05-02T23:57:32.197Z,100.00
